createdAt,value
2022-08-05T00:01:35.505Z,21.43
2022-08-05T00:04:08.221Z,21.38
2022-08-05T00:06:36.753Z,21.38
2022-08-05T00:09:12.965Z,21.41
2022-08-05T00:11:49.573Z,21.47
2022-08-05T00:14:27.644Z,21.34
2022-08-05T00:16:58.865Z,21.29
2022-08-05T00:19:40.700Z,21.25
2022-08-05T00:22:13.780Z,21.19
2022-08-05T00:24:45.766Z,21.20
2022-08-05T00:27:35.637Z,21.24
2022-08-05T00:30:04.726Z,21.28
2022-08-05T00:32:34.127Z,21.29
2022-08-05T00:35:06.903Z,21.32
2022-08-05T00:37:53.468Z,21.31
2022-08-05T00:40:27.965Z,21.22
2022-08-05T00:42:58.426Z,21.19
2022-08-05T00:45:39.075Z,21.04
2022-08-05T00:48:14.139Z,20.98
2022-08-05T00:50:44.275Z,20.99
2022-08-05T00:54:00.900Z,20.98
2022-08-05T00:56:04.219Z,21.03
2022-08-05T00:58:33.904Z,21.06
2022-08-05T01:01:02.053Z,20.97
2022-08-05T01:03:38.241Z,20.92
2022-08-05T01:06:06.410Z,20.88
2022-08-05T01:08:47.466Z,20.90
2022-08-05T01:11:22.613Z,20.92
2022-08-05T01:14:08.783Z,21.04
2022-08-05T01:16:44.555Z,20.89
2022-08-05T01:19:36.671Z,20.96
2022-08-05T01:22:28.090Z,21.00
2022-08-05T01:25:15.412Z,21.00
2022-08-05T01:28:08.889Z,20.87
2022-08-05T01:30:41.200Z,20.88
2022-08-05T01:33:26.181Z,20.81
2022-08-05T01:35:57.567Z,20.82
2022-08-05T01:38:29.977Z,20.84
2022-08-05T01:41:01.575Z,20.91
2022-08-05T01:43:33.664Z,20.91
2022-08-05T01:46:06.922Z,21.00
2022-08-05T01:48:49.384Z,21.06
2022-08-05T01:51:19.569Z,20.98
2022-08-05T01:53:57.708Z,21.00
2022-08-05T01:58:12.246Z,20.96
2022-08-05T01:59:24.264Z,20.86
2022-08-05T02:01:57.971Z,20.77
2022-08-05T02:04:29.993Z,20.78
2022-08-05T02:07:00.078Z,20.68
2022-08-05T02:09:31.798Z,20.80
2022-08-05T02:12:05.773Z,20.80
2022-08-05T02:14:47.091Z,20.83
2022-08-05T02:18:14.583Z,20.75
2022-08-05T02:20:20.716Z,20.84
2022-08-05T02:22:58.147Z,20.83
2022-08-05T02:25:33.435Z,20.79
2022-08-05T02:28:08.921Z,20.78
2022-08-05T02:30:51.873Z,20.55
2022-08-05T02:33:24.685Z,20.65
2022-08-05T02:36:10.053Z,20.41
2022-08-05T02:38:52.773Z,20.49
2022-08-05T02:41:22.878Z,20.57
2022-08-05T02:44:02.509Z,20.42
2022-08-05T02:46:44.024Z,20.47
2022-08-05T02:49:26.856Z,20.62
2022-08-05T02:52:03.823Z,20.64
2022-08-05T02:54:36.984Z,20.48
2022-08-05T02:57:10.172Z,20.48
2022-08-05T02:59:57.690Z,20.29
2022-08-05T03:02:32.933Z,20.19
2022-08-05T03:05:02.397Z,20.11
2022-08-05T03:08:00.647Z,20.16
2022-08-05T03:10:22.019Z,20.12
2022-08-05T03:12:53.640Z,20.03
2022-08-05T03:15:23.449Z,19.97
2022-08-05T03:17:55.780Z,20.02
2022-08-05T03:20:24.805Z,19.96
2022-08-05T03:22:57.221Z,19.95
2022-08-05T03:25:32.530Z,19.84
2022-08-05T03:28:18.579Z,19.89
2022-08-05T03:30:49.041Z,19.84
2022-08-05T03:33:18.841Z,19.78
2022-08-05T03:35:46.979Z,19.72
2022-08-05T03:38:15.989Z,19.73
2022-08-05T03:40:48.543Z,19.66
2022-08-05T03:44:09.179Z,19.60
2022-08-05T03:46:08.105Z,19.53
2022-08-05T03:48:37.890Z,19.51
2022-08-05T03:52:35.380Z,19.57
2022-08-05T03:55:52.078Z,19.63
2022-08-05T03:56:59.896Z,19.56
2022-08-05T03:59:38.080Z,19.60
2022-08-05T04:02:38.327Z,19.58
2022-08-05T04:05:10.211Z,19.37
2022-08-05T04:07:58.029Z,19.49
2022-08-05T04:10:30.784Z,19.51
2022-08-05T04:13:04.043Z,19.47
2022-08-05T04:15:35.870Z,19.51
2022-08-05T04:18:06.669Z,19.47
2022-08-05T04:20:37.191Z,19.49
2022-08-05T04:23:05.336Z,19.54
2022-08-05T04:25:57.619Z,19.61
2022-08-05T04:28:30.932Z,19.60
2022-08-05T04:31:01.510Z,19.47
2022-08-05T04:34:17.215Z,19.55
2022-08-05T04:36:44.940Z,19.54
2022-08-05T04:39:07.358Z,19.62
2022-08-05T04:41:37.885Z,19.62
2022-08-05T04:44:09.258Z,19.59
2022-08-05T04:46:37.994Z,19.56
2022-08-05T04:49:09.992Z,19.49
2022-08-05T04:51:44.625Z,19.43
2022-08-05T04:54:14.656Z,19.41
2022-08-05T04:56:43.657Z,19.42
2022-08-05T04:59:22.415Z,19.43
2022-08-05T05:02:06.744Z,19.44
2022-08-05T05:04:49.936Z,19.44
2022-08-05T05:07:23.882Z,19.52
2022-08-05T05:09:57.727Z,19.55
2022-08-05T05:12:27.502Z,19.63
2022-08-05T05:14:55.839Z,19.60
2022-08-05T05:17:55.623Z,19.59
2022-08-05T05:20:13.741Z,19.65
2022-08-05T05:22:44.114Z,19.72
2022-08-05T05:25:17.275Z,19.69
2022-08-05T05:27:53.624Z,19.76
2022-08-05T05:30:29.751Z,19.80
2022-08-05T05:33:00.438Z,19.88
2022-08-05T05:35:31.593Z,19.86
2022-08-05T05:38:05.493Z,20.00
2022-08-05T05:40:34.431Z,20.15
2022-08-05T05:43:02.634Z,20.19
2022-08-05T05:45:30.974Z,20.18
2022-08-05T05:48:06.535Z,20.08
2022-08-05T05:50:43.972Z,20.01
2022-08-05T05:53:21.235Z,19.92
2022-08-05T05:56:00.832Z,19.97
2022-08-05T05:58:32.502Z,19.95
2022-08-05T06:01:12.464Z,19.95
2022-08-05T06:04:00.501Z,19.82
2022-08-05T06:06:30.994Z,19.74
2022-08-05T06:09:03.211Z,19.75
2022-08-05T06:11:32.198Z,19.76
2022-08-05T06:14:00.675Z,19.87
2022-08-05T06:16:36.867Z,19.89
2022-08-05T06:19:07.422Z,19.97
2022-08-05T06:21:38.887Z,19.98
2022-08-05T06:24:12.794Z,20.06
2022-08-05T06:26:52.231Z,20.22
2022-08-05T06:29:25.286Z,20.45
2022-08-05T06:32:21.446Z,20.58
2022-08-05T06:34:57.961Z,20.70
2022-08-05T06:37:56.114Z,20.78
2022-08-05T06:40:18.143Z,20.84
2022-08-05T06:42:51.887Z,20.98
2022-08-05T06:45:44.981Z,20.95
2022-08-05T06:48:37.200Z,21.47
2022-08-05T06:50:57.507Z,21.80
2022-08-05T06:53:28.217Z,22.07
2022-08-05T06:55:58.447Z,23.01
2022-08-05T06:58:35.247Z,24.55
2022-08-05T07:01:06.028Z,25.22
2022-08-05T07:03:35.029Z,25.37
2022-08-05T07:06:06.178Z,24.82
2022-08-05T07:08:48.039Z,24.28
2022-08-05T07:11:22.620Z,23.96
2022-08-05T07:14:20.143Z,23.56
2022-08-05T07:18:01.760Z,23.09
2022-08-05T07:22:30.109Z,22.46
2022-08-05T07:25:21.780Z,22.47
2022-08-05T07:27:56.465Z,22.14
2022-08-05T07:30:32.455Z,22.16
2022-08-05T07:33:01.915Z,22.17
2022-08-05T07:36:05.158Z,21.94
2022-08-05T07:38:32.387Z,21.91
2022-08-05T07:42:07.246Z,21.87
2022-08-05T07:43:56.688Z,21.77
2022-08-05T07:46:26.783Z,21.72
2022-08-05T07:49:02.858Z,21.68
2022-08-05T07:51:36.684Z,21.59
2022-08-05T07:54:08.360Z,21.60
2022-08-05T07:57:00.356Z,21.47
2022-08-05T07:59:39.076Z,21.41
2022-08-05T08:02:10.619Z,21.46
2022-08-05T08:04:45.089Z,21.46
2022-08-05T08:07:13.757Z,21.34
2022-08-05T08:09:41.818Z,21.27
2022-08-05T08:12:28.541Z,21.34
2022-08-05T08:15:02.159Z,21.41
2022-08-05T08:17:30.872Z,21.46
2022-08-05T08:20:42.588Z,21.08
2022-08-05T08:22:52.452Z,21.16
2022-08-05T08:25:26.398Z,21.18
2022-08-05T08:27:54.671Z,21.19
2022-08-05T08:30:32.606Z,21.16
2022-08-05T08:33:08.951Z,21.04
2022-08-05T08:35:53.959Z,21.06
2022-08-05T08:38:35.132Z,21.15
2022-08-05T08:41:08.572Z,21.32
2022-08-05T08:45:23.476Z,21.33
2022-08-05T08:46:30.549Z,21.23
2022-08-05T08:49:17.413Z,21.21
2022-08-05T08:52:04.031Z,21.21
2022-08-05T08:54:38.302Z,21.19
2022-08-05T08:57:13.345Z,21.24
2022-08-05T08:59:47.363Z,21.19
2022-08-05T09:02:21.306Z,21.16
2022-08-05T09:05:16.955Z,21.02
2022-08-05T09:07:57.377Z,21.04
2022-08-05T09:10:27.739Z,21.02
2022-08-05T09:13:04.708Z,20.90
2022-08-05T09:15:36.786Z,20.96
2022-08-05T09:18:08.804Z,20.95
2022-08-05T09:20:38.368Z,21.05
2022-08-05T09:23:18.677Z,21.09
2022-08-05T09:26:01.102Z,21.17
2022-08-05T09:28:33.169Z,21.17
2022-08-05T09:31:22.068Z,21.19
2022-08-05T09:33:59.091Z,21.14
2022-08-05T09:36:45.934Z,21.07
2022-08-05T09:39:39.275Z,21.17
2022-08-05T09:42:23.642Z,20.93
2022-08-05T09:44:57.193Z,20.98
2022-08-05T09:47:46.581Z,20.97
2022-08-05T09:50:32.505Z,21.02
2022-08-05T09:53:06.391Z,21.07
2022-08-05T09:55:57.571Z,21.05
2022-08-05T09:58:26.221Z,20.94
2022-08-05T10:01:00.024Z,21.03
2022-08-05T10:03:56.726Z,21.01
2022-08-05T10:06:21.232Z,21.08
2022-08-05T10:08:50.310Z,21.09
2022-08-05T10:11:21.998Z,21.20
2022-08-05T10:13:54.751Z,21.16
2022-08-05T10:16:33.802Z,21.09
2022-08-05T10:19:08.495Z,21.08
2022-08-05T10:21:40.326Z,20.92
2022-08-05T10:24:13.508Z,20.83
2022-08-05T10:26:48.905Z,20.88
2022-08-05T10:29:22.240Z,20.86
2022-08-05T10:32:52.647Z,20.82
2022-08-05T10:34:41.182Z,20.81
2022-08-05T10:37:13.938Z,20.87
2022-08-05T10:40:03.888Z,20.88
2022-08-05T10:42:38.584Z,20.74
2022-08-05T10:45:23.750Z,20.67
2022-08-05T10:48:35.085Z,20.55
2022-08-05T10:51:21.769Z,20.39
2022-08-05T10:53:58.454Z,20.46
2022-08-05T10:56:30.964Z,20.43
2022-08-05T10:59:12.529Z,20.46
2022-08-05T11:02:08.931Z,20.31
2022-08-05T11:04:46.978Z,20.40
2022-08-05T11:07:18.570Z,20.36
2022-08-05T11:10:04.086Z,20.30
2022-08-05T11:12:55.242Z,20.30
2022-08-05T11:16:00.779Z,20.32
2022-08-05T11:18:29.927Z,20.34
2022-08-05T11:21:00.624Z,20.34
2022-08-05T11:23:49.899Z,20.33
2022-08-05T11:26:29.086Z,20.23
2022-08-05T11:29:11.979Z,20.22
2022-08-05T11:31:58.166Z,20.13
2022-08-05T11:34:47.222Z,19.75
2022-08-05T11:38:28.357Z,19.78
2022-08-05T11:41:03.476Z,19.71
2022-08-05T11:44:01.084Z,19.74
2022-08-05T11:46:36.203Z,19.80
2022-08-05T11:49:07.940Z,19.69
2022-08-05T11:51:44.320Z,19.79
2022-08-05T11:54:32.672Z,19.94
2022-08-05T11:57:08.311Z,20.05
2022-08-05T11:59:52.929Z,20.09
2022-08-05T12:02:32.038Z,20.19
2022-08-05T12:05:07.582Z,20.20
2022-08-05T12:08:09.295Z,20.14
2022-08-05T12:10:43.690Z,20.25
2022-08-05T12:13:17.337Z,20.32
2022-08-05T12:15:57.048Z,20.29
2022-08-05T12:18:33.013Z,20.52
2022-08-05T12:21:11.060Z,20.63
2022-08-05T12:23:43.149Z,20.71
2022-08-05T12:26:11.326Z,20.69
2022-08-05T12:28:39.562Z,20.77
2022-08-05T12:31:09.671Z,20.83
2022-08-05T12:33:38.796Z,20.96
2022-08-05T12:36:09.356Z,21.17
2022-08-05T12:38:39.992Z,21.37
2022-08-05T12:41:13.459Z,21.36
2022-08-05T12:43:52.936Z,21.27
2022-08-05T12:46:29.704Z,21.44
2022-08-05T12:49:05.865Z,21.59
2022-08-05T12:52:12.755Z,21.59
2022-08-05T12:54:36.682Z,21.41
2022-08-05T12:57:09.744Z,21.63
2022-08-05T13:01:56.932Z,21.79
2022-08-05T13:02:40.018Z,22.07
2022-08-05T13:05:11.081Z,22.26
2022-08-05T13:07:59.750Z,22.52
2022-08-05T13:10:28.929Z,22.63
2022-08-05T13:12:58.765Z,22.55
2022-08-05T13:15:41.120Z,22.80
2022-08-05T13:18:20.631Z,22.92
2022-08-05T13:20:50.100Z,22.91
2022-08-05T13:23:22.549Z,22.86
2022-08-05T13:26:00.956Z,22.76
2022-08-05T13:28:32.328Z,22.55
2022-08-05T13:31:03.345Z,22.49
2022-08-05T13:34:21.194Z,22.68
2022-08-05T13:36:31.677Z,22.76
2022-08-05T13:38:59.733Z,22.84
2022-08-05T13:41:36.054Z,22.90
2022-08-05T13:44:06.155Z,23.07
2022-08-05T13:46:50.805Z,23.35
2022-08-05T13:49:23.406Z,23.34
2022-08-05T13:51:51.523Z,23.31
2022-08-05T13:54:25.151Z,23.46
2022-08-05T13:56:53.991Z,23.59
2022-08-05T13:59:24.328Z,23.74
2022-08-05T14:01:57.874Z,23.77
2022-08-05T14:04:50.519Z,23.79
2022-08-05T14:07:55.549Z,23.77
2022-08-05T14:10:11.179Z,23.89
2022-08-05T14:12:39.760Z,23.68
2022-08-05T14:16:04.404Z,23.65
2022-08-05T14:18:00.722Z,23.50
2022-08-05T14:20:30.755Z,23.40
2022-08-05T14:22:58.795Z,23.40
2022-08-05T14:25:28.314Z,23.39
2022-08-05T14:27:56.729Z,23.29
2022-08-05T14:30:27.793Z,23.09
2022-08-05T14:32:56.746Z,23.09
2022-08-05T14:35:37.309Z,23.21
2022-08-05T14:38:32.760Z,23.35
2022-08-05T14:41:06.692Z,23.47
2022-08-05T14:43:57.778Z,23.35
2022-08-05T14:46:29.162Z,23.39
2022-08-05T14:49:03.664Z,23.22
2022-08-05T14:51:36.523Z,23.12
2022-08-05T14:54:28.291Z,23.36
2022-08-05T14:56:55.526Z,23.31
2022-08-05T14:59:23.591Z,23.40
2022-08-05T15:01:51.644Z,23.56
2022-08-05T15:04:23.789Z,23.55
2022-08-05T15:06:55.387Z,23.48
2022-08-05T15:09:52.463Z,23.45
2022-08-05T15:12:16.808Z,23.24
2022-08-05T15:14:56.147Z,23.22
2022-08-05T15:17:47.271Z,23.24
2022-08-05T15:20:18.398Z,23.49
2022-08-05T15:22:54.159Z,23.45
2022-08-05T15:25:41.315Z,23.28
2022-08-05T15:28:14.294Z,23.38
2022-08-05T15:30:43.634Z,23.13
2022-08-05T15:33:53.718Z,22.90
2022-08-05T15:36:03.480Z,22.74
2022-08-05T15:38:36.156Z,22.45
2022-08-05T15:41:22.962Z,22.47
2022-08-05T15:43:54.454Z,22.49
2022-08-05T15:46:24.069Z,22.46
2022-08-05T15:49:00.740Z,22.53
2022-08-05T15:52:03.746Z,22.44
2022-08-05T15:54:34.794Z,22.19
2022-08-05T15:57:07.513Z,22.15
2022-08-05T15:59:36.186Z,22.29
2022-08-05T16:02:09.484Z,22.23
2022-08-05T16:04:43.168Z,21.87
2022-08-05T16:07:12.338Z,21.77
2022-08-05T16:09:42.140Z,21.71
2022-08-05T16:12:13.062Z,21.55
2022-08-05T16:14:43.251Z,21.37
2022-08-05T16:17:14.803Z,21.37
2022-08-05T16:20:04.168Z,21.35
2022-08-05T16:22:34.357Z,21.40
2022-08-05T16:25:09.826Z,21.38
2022-08-05T16:28:00.534Z,21.16
2022-08-05T16:30:30.766Z,21.08
2022-08-05T16:33:00.694Z,21.22
2022-08-05T16:35:32.218Z,21.24
2022-08-05T16:38:16.927Z,21.25
2022-08-05T16:40:55.050Z,21.20
2022-08-05T16:43:26.688Z,21.32
2022-08-05T16:46:05.136Z,21.27
2022-08-05T16:48:40.214Z,21.17
2022-08-05T16:51:08.953Z,21.21
2022-08-05T16:54:02.514Z,21.22
2022-08-05T16:56:29.581Z,21.10
2022-08-05T16:59:00.975Z,21.17
2022-08-05T17:01:54.859Z,21.30
2022-08-05T17:04:26.362Z,21.27
2022-08-05T17:06:55.541Z,21.14
2022-08-05T17:09:23.522Z,21.13
2022-08-05T17:11:55.995Z,20.98
2022-08-05T17:14:37.544Z,20.91
2022-08-05T17:17:09.300Z,20.81
2022-08-05T17:19:45.437Z,20.70
2022-08-05T17:22:24.509Z,20.61
2022-08-05T17:24:57.149Z,20.53
2022-08-05T17:27:27.338Z,20.50
2022-08-05T17:30:04.650Z,20.44
2022-08-05T17:32:39.803Z,20.34
2022-08-05T17:35:10.921Z,20.47
2022-08-05T17:37:45.145Z,20.42
2022-08-05T17:40:15.994Z,20.22
2022-08-05T17:42:51.327Z,19.95
2022-08-05T17:45:25.118Z,19.99
2022-08-05T17:48:08.049Z,19.93
2022-08-05T17:50:36.389Z,19.87
2022-08-05T17:53:08.467Z,19.78
2022-08-05T17:55:37.769Z,19.79
2022-08-05T17:58:09.789Z,19.68
2022-08-05T18:00:45.006Z,19.39
2022-08-05T18:03:24.150Z,19.41
2022-08-05T18:06:06.182Z,19.26
2022-08-05T18:08:44.625Z,19.25
2022-08-05T18:11:23.717Z,19.30
2022-08-05T18:13:55.348Z,19.23
2022-08-05T18:16:24.821Z,19.26
2022-08-05T18:18:52.716Z,19.28
2022-08-05T18:21:26.039Z,19.28
2022-08-05T18:23:54.768Z,19.25
2022-08-05T18:26:29.140Z,19.17
2022-08-05T18:28:57.734Z,19.12
2022-08-05T18:31:32.996Z,19.10
2022-08-05T18:34:03.992Z,19.03
2022-08-05T18:36:35.354Z,18.91
2022-08-05T18:39:03.400Z,18.80
2022-08-05T18:41:53.624Z,18.84
2022-08-05T18:44:33.137Z,18.84
2022-08-05T18:47:05.496Z,18.69
2022-08-05T18:50:00.171Z,18.63
2022-08-05T18:52:35.832Z,18.66
2022-08-05T18:55:06.584Z,18.50
2022-08-05T18:57:50.113Z,18.45
2022-08-05T19:00:27.098Z,18.45
2022-08-05T19:03:03.185Z,18.33
2022-08-05T19:06:13.612Z,18.36
2022-08-05T19:08:21.535Z,18.31
2022-08-05T19:10:50.143Z,18.19
2022-08-05T19:13:18.151Z,18.24
2022-08-05T19:16:00.257Z,18.24
2022-08-05T19:18:33.137Z,18.23
2022-08-05T19:21:01.650Z,18.14
2022-08-05T19:24:06.597Z,18.12
2022-08-05T19:26:22.536Z,18.10
2022-08-05T19:28:50.438Z,18.11
2022-08-05T19:31:19.526Z,18.12
2022-08-05T19:33:56.490Z,18.07
2022-08-05T19:36:26.029Z,18.04
2022-08-05T19:39:00.996Z,18.02
2022-08-05T19:42:05.565Z,17.98
2022-08-05T19:44:18.341Z,17.98
2022-08-05T19:46:46.606Z,17.99
2022-08-05T19:49:16.661Z,18.02
2022-08-05T19:52:08.589Z,18.07
2022-08-05T19:54:34.361Z,18.15
2022-08-05T19:57:06.882Z,18.18
2022-08-05T20:00:00.713Z,18.26
2022-08-05T20:02:31.426Z,18.20
2022-08-05T20:05:00.878Z,18.18
2022-08-05T20:07:46.304Z,18.09
2022-08-05T20:10:16.996Z,18.07
2022-08-05T20:12:47.542Z,18.01
2022-08-05T20:15:48.603Z,17.94
2022-08-05T20:18:10.222Z,17.89
2022-08-05T20:20:56.357Z,17.92
2022-08-05T20:23:42.285Z,17.85
2022-08-05T20:26:16.070Z,17.79
2022-08-05T20:28:48.086Z,17.75
2022-08-05T20:31:16.723Z,17.78
2022-08-05T20:33:45.523Z,17.80
2022-08-05T20:36:16.185Z,17.79
2022-08-05T20:38:54.554Z,17.79
2022-08-05T20:41:43.422Z,17.83
2022-08-05T20:44:19.142Z,17.82
2022-08-05T20:46:58.015Z,17.76
2022-08-05T20:49:26.250Z,17.72
2022-08-05T20:51:57.478Z,17.74
2022-08-05T20:54:55.564Z,17.74
2022-08-05T20:57:42.084Z,17.71
2022-08-05T21:00:19.936Z,17.72
2022-08-05T21:02:55.433Z,17.64
2022-08-05T21:05:24.936Z,17.65
2022-08-05T21:07:54.333Z,17.65
2022-08-05T21:10:24.099Z,17.61
2022-08-05T21:13:08.885Z,17.65
2022-08-05T21:15:44.321Z,17.68
2022-08-05T21:18:12.519Z,17.67
2022-08-05T21:20:41.853Z,17.61
2022-08-05T21:23:13.021Z,17.63
2022-08-05T21:25:44.719Z,17.62
2022-08-05T21:28:13.117Z,17.63
2022-08-05T21:30:46.487Z,17.62
2022-08-05T21:33:22.453Z,17.57
2022-08-05T21:35:58.379Z,17.54
2022-08-05T21:38:29.022Z,17.57
2022-08-05T21:40:56.910Z,17.57
2022-08-05T21:43:26.056Z,17.53
2022-08-05T21:45:56.360Z,17.57
2022-08-05T21:48:25.941Z,17.48
2022-08-05T21:50:54.598Z,17.49
2022-08-05T21:53:27.318Z,17.48
2022-08-05T21:56:05.263Z,17.47
2022-08-05T21:58:57.100Z,17.49
2022-08-05T22:01:26.538Z,17.45
2022-08-05T22:03:54.794Z,17.44
2022-08-05T22:06:35.548Z,17.43
2022-08-05T22:09:15.166Z,17.31
2022-08-05T22:11:50.643Z,17.31
2022-08-05T22:14:35.582Z,17.34
2022-08-05T22:17:07.454Z,17.35
2022-08-05T22:20:00.358Z,17.25
2022-08-05T22:22:27.821Z,17.25
2022-08-05T22:25:20.897Z,17.24
2022-08-05T22:28:08.891Z,17.17
2022-08-05T22:30:56.539Z,17.14
2022-08-05T22:33:56.944Z,17.13
2022-08-05T22:36:15.278Z,17.15
2022-08-05T22:38:48.678Z,17.11
2022-08-05T22:42:05.710Z,17.09
2022-08-05T22:44:07.775Z,17.10
2022-08-05T22:46:39.554Z,17.07
2022-08-05T22:49:12.362Z,17.09
2022-08-05T22:52:06.060Z,17.08
2022-08-05T22:54:36.141Z,17.01
2022-08-05T22:57:04.374Z,17.05
2022-08-05T22:59:43.833Z,17.05
2022-08-05T23:02:17.231Z,17.04
2022-08-05T23:04:51.295Z,17.01
2022-08-05T23:07:22.087Z,17.04
2022-08-05T23:09:57.978Z,17.01
2022-08-05T23:12:32.962Z,16.92
2022-08-05T23:15:03.408Z,16.93
2022-08-05T23:17:34.937Z,16.91
2022-08-05T23:20:10.414Z,16.96
2022-08-05T23:22:47.103Z,16.94
2022-08-05T23:25:17.049Z,16.87
2022-08-05T23:28:06.996Z,16.88
2022-08-05T23:30:40.463Z,16.91
2022-08-05T23:33:15.962Z,16.83
2022-08-05T23:35:51.600Z,16.78
2022-08-05T23:38:19.643Z,16.77
2022-08-05T23:40:49.901Z,16.78
2022-08-05T23:43:25.047Z,16.79
2022-08-05T23:46:20.773Z,16.80
2022-08-05T23:49:01.144Z,16.73
2022-08-05T23:51:53.926Z,16.72
2022-08-05T23:54:25.869Z,16.74
2022-08-05T23:56:55.624Z,16.74
